หน้าหลัก
METAR-TAF:

METAR-TAF

ท่าอากาศยาน :

แท่นขุดเจาะน้ำมัน

D15-fa-1, เนเธอร์แลนด์

ละติจูด: 54-19-32N, ลองจิจูด: 2-56-09E, ความสูง: 36 ม.

การสังเกตสภาพอากาศปัจจุบัน

รายงานได้ทำขึ้นเมื่อ 40 นาทีที่แล้ว ณ เวลา 02:55 UTC
ลม 9 นอตจากใต้, แปรผันระหว่างตะวันออกเฉียงใต้ และตะวันตก/ตะวันตกเฉียงเหนือ
อุณหภูมิ 11°C
ความชื้น 76%
ความกดอากาศ 1015 hPa
ทัศนวิสัย 10 กม. หรือมากกว่า

METAR: EHDV 130255Z AUTO 17009KT 130V300 9999 BKN035/// 11/07 Q1015

เวลา: 05:35 (03:35 UTC)


TAF: หายไป

สังเกตการณ์สภาพอากาศและพยากรณ์อากาศของสนามบินมากกว่า 4000 แห่ง (รายงาน METAR และ TAF).

สถานีที่ดูได้จะแสดงไว้ด้วยจุดสีเหลืองและสีแดงบนแผนที่.

เลื่อนเมาส์ไปเหนือจุดเพื่อดูชื่อสถานี.

แล้วคลิกเพื่อดูสังเกตการณ์และการพยากรณ์สภาพอากาศ.

ในการเปลี่ยนแผนที่: คลิกที่ปุ่มสีเขียวที่มีกากบาทสีดำเพื่อซูมเข้า; ที่ปุ่มสีเขียวที่มีขีดเพื่อซูมออก; หรือที่ลูกศรสีเขียวเพื่อไปยังแผนที่ที่อยู่ติดกัน.


METAR-TAF: